Flag for Germany

Past Weather in 50°59'54.8"N, 11°05'37.1"E, Germany — Yesterday and Last 2 Weeks

Currently: 50 °F. Drizzle. Mostly cloudy. (Weather station: Erfurt-Bindersleben, Germany). See more current weather

Past Weather in 50°59'54.8"N, 11°05'37.1"E — Graph

°F

50°59'54.8"N, 11°05'37.1"E Temperature Yesterday

Maximum temperature yesterday: 59 °F (at 12:50 pm)
Minimum temperature yesterday: 41 °F (at 6:50 am)
Average temperature yesterday: 52 °F

High & Low Weather Summary for the Past Weeks

 TemperatureHumidityPressure
High75 °F (Sep 13, 1:50 pm)100% (Sep 12, 1:20 am)30.33 "Hg (Sep 12, 1:20 am)
Low36 °F (Sep 21, 6:50 am)37% (Sep 24, 2:50 pm)29.47 "Hg (Sep 26, 10:50 pm)
Average53 °F78%29.93 "Hg
* Reported Sep 11 10:20 pm — Sep 26 10:50 pm, 50°59'54.8"N, 11°05'37.1"E. Weather by CustomWeather, © 2022

Note: Actual official high and low records may vary slightly from our data, if they occured in-between our weather recording intervals... More about our weather records

50°59'54.8"N, 11°05'37.1"E Weather History for the Previous 24 Hours

Scroll right to see more
 ConditionsComfort  
Time TempWeatherWind HumidityBarometerVisibility
10:50 pm
Mon, Sep 26
52 °FPassing clouds.12 mph77%29.47 "HgN/A
10:20 pm50 °FClear.12 mph82%29.50 "Hg10 mi
9:50 pm50 °FClear.15 mph76%29.50 "Hg10 mi
9:20 pm50 °FClear.13 mph76%29.53 "Hg10 mi
8:50 pm52 °FClear.13 mph72%29.53 "Hg10 mi
8:20 pm52 °FClear.13 mph77%29.53 "Hg10 mi
7:50 pm52 °FClear.10 mph72%29.53 "Hg10 mi
7:20 pm52 °FClear.14 mph72%29.56 "Hg10 mi
6:50 pm54 °FDrizzle. Partly sunny.16 mph67%29.56 "HgN/A
6:20 pm55 °FSunny.12 mph59%29.56 "Hg10 mi
5:50 pm55 °FPassing clouds.12 mph63%29.56 "HgN/A
5:20 pm57 °FPassing clouds.13 mph55%29.56 "HgN/A
4:50 pm57 °FPassing clouds.15 mph55%29.59 "HgN/A
4:20 pm59 °FScattered clouds.16 mph51%29.59 "HgN/A
3:50 pm57 °FScattered clouds.17 mph55%29.59 "HgN/A
2:50 pm57 °FScattered clouds.15 mph59%29.62 "HgN/A
2:20 pm59 °FPassing clouds.16 mph55%29.65 "HgN/A
1:50 pm57 °FPartly sunny.17 mph59%29.65 "HgN/A
1:20 pm55 °FScattered clouds.17 mph63%29.65 "HgN/A
12:50 pm59 °FScattered clouds.16 mph63%29.68 "HgN/A
12:20 pm57 °FPassing clouds.16 mph63%29.68 "HgN/A
11:50 am55 °FPassing clouds.16 mph67%29.68 "HgN/A
11:20 am55 °FSunny.14 mph67%29.71 "Hg10 mi
10:20 am54 °FPassing clouds.9 mph72%29.71 "HgN/A
8:50 am48 °FSunny.10 mph82%29.71 "Hg10 mi
8:20 am46 °FSunny.9 mph87%29.74 "Hg10 mi
7:50 am45 °FSunny.9 mph93%29.74 "Hg10 mi
7:20 am45 °FSunny.9 mph93%29.74 "Hg10 mi
6:50 am41 °FClear.7 mph100%29.74 "Hg10 mi
6:20 am45 °FClear.7 mph93%29.77 "Hg10 mi
5:50 am43 °FClear.9 mph100%29.77 "Hg10 mi
5:20 am45 °FClear.9 mph93%29.77 "Hg10 mi
4:50 am45 °FClear.10 mph93%29.77 "Hg10 mi
4:20 am46 °FClear.9 mph93%29.80 "Hg10 mi
3:20 am50 °FPassing clouds.9 mph94%29.80 "HgN/A
2:50 am50 °FOvercast.9 mph94%29.80 "HgN/A
1:20 am52 °FPassing clouds.8 mph88%29.83 "HgN/A
12:50 am50 °FPassing clouds.7 mph94%29.83 "HgN/A
12:20 am50 °FPassing clouds.7 mph94%29.83 "HgN/A
Weather by CustomWeather, © 2022

See weather overview